KWMC/WMC METAR and TAF weather

Enter ICAO airport designator
Station Type Date Time Source
KWMC METAR 2022/12/04 11:56 UTC NOAA

KWMC 041156Z AUTO 07008KT 10SM FEW016 SCT036 OVC090 02/00 A2990 RMK AO2 RAE16 SLP129 P0001 60005 70005 T00170000 10022 20006 58018


Station Type Date Time Source
KWMC Decoded METAR 2022/12/04 11:56 UTC NOAA

WINNEMUCCA MUNICIPAL AIRPORT, NV, United States (KWMC) 40-54N 117-48W 1310M
Dec 04, 2022 - 06:56 AM EST / 2022.12.04 1156 UTC
Wind: from the ENE (070 degrees) at 9 MPH (8 KT):0
Visibility: 10 mile(s):0
Sky conditions: overcast
Precipitation last hour: 0.01 inches
Temperature: 35.1 F (1.7 C)
Dew Point: 32.0 F (0.0 C)
Relative Humidity: 88%
Pressure (altimeter): 29.9 in. Hg (1012 hPa)
Pressure tendency: 0.05 inches (1.8 hPa) lower than three hours ago
ob: KWMC 041156Z AUTO 07008KT 10SM FEW016 SCT036 OVC090 02/00 A2990 RMK AO2 RAE16 SLP129 P0001 60005 70005 T00170000 10022 20006 58018
cycle: 12

Station Type Date Time Source
KWMC TAF 2022/12/04 12:40 UTC NOAA

TAF KWMC 041138Z 0412/0512 07009KT P6SM -SHSNRA SCT025 OVC035
TEMPO 0413/0416 2SM -SNRA BR FEW015 OVC025
FM041700 23008KT 5SM -SHRA BR OVC015
FM042300 VRB06KT P6SM VCSH OVC080
FM050200 VRB06KT P6SM SCT030 OVC080

Example: see airport list